sensor_id;sensor_type;location;lat;lon;timestamp;P1;durP1;ratioP1;P2;durP2;ratioP2
17201;SDS011;8717;53.588;10.176;2023-04-25T00:01:39;6.43;;;3.73;;
17201;SDS011;8717;53.588;10.176;2023-04-25T00:04:06;8.37;;;4.07;;
17201;SDS011;8717;53.588;10.176;2023-04-25T00:06:33;5.37;;;3.63;;
17201;SDS011;8717;53.588;10.176;2023-04-25T00:09:01;8.23;;;3.50;;
17201;SDS011;8717;53.588;10.176;2023-04-25T00:11:28;4.27;;;3.40;;
17201;SDS011;8717;53.588;10.176;2023-04-25T00:13:57;4.70;;;3.50;;
17201;SDS011;8717;53.588;10.176;2023-04-25T00:16:24;7.33;;;3.67;;
17201;SDS011;8717;53.588;10.176;2023-04-25T00:18:51;7.40;;;3.80;;
17201;SDS011;8717;53.588;10.176;2023-04-25T00:21:18;7.13;;;4.33;;
17201;SDS011;8717;53.588;10.176;2023-04-25T00:23:46;7.67;;;4.00;;
17201;SDS011;8717;53.588;10.176;2023-04-25T00:26:12;8.77;;;4.17;;
17201;SDS011;8717;53.588;10.176;2023-04-25T00:28:40;8.53;;;4.27;;
17201;SDS011;8717;53.588;10.176;2023-04-25T00:31:08;9.73;;;4.10;;
17201;SDS011;8717;53.588;10.176;2023-04-25T00:33:34;10.90;;;4.20;;
17201;SDS011;8717;53.588;10.176;2023-04-25T00:36:01;10.17;;;4.17;;
17201;SDS011;8717;53.588;10.176;2023-04-25T00:38:28;11.77;;;4.87;;
17201;SDS011;8717;53.588;10.176;2023-04-25T00:40:55;13.73;;;4.77;;
17201;SDS011;8717;53.588;10.176;2023-04-25T00:43:23;15.03;;;4.00;;
17201;SDS011;8717;53.588;10.176;2023-04-25T00:45:51;14.20;;;4.80;;
17201;SDS011;8717;53.588;10.176;2023-04-25T00:48:21;12.87;;;4.17;;
17201;SDS011;8717;53.588;10.176;2023-04-25T00:50:49;11.50;;;3.50;;
17201;SDS011;8717;53.588;10.176;2023-04-25T00:53:19;9.23;;;3.67;;
17201;SDS011;8717;53.588;10.176;2023-04-25T00:55:46;14.43;;;4.17;;
17201;SDS011;8717;53.588;10.176;2023-04-25T00:58:16;15.07;;;3.90;;
17201;SDS011;8717;53.588;10.176;2023-04-25T01:00:43;13.27;;;3.80;;
17201;SDS011;8717;53.588;10.176;2023-04-25T01:03:11;22.27;;;4.10;;
17201;SDS011;8717;53.588;10.176;2023-04-25T01:05:40;14.93;;;4.47;;
17201;SDS011;8717;53.588;10.176;2023-04-25T01:08:08;13.90;;;3.80;;
17201;SDS011;8717;53.588;10.176;2023-04-25T01:10:35;18.70;;;4.47;;
17201;SDS011;8717;53.588;10.176;2023-04-25T01:13:02;22.27;;;4.97;;
17201;SDS011;8717;53.588;10.176;2023-04-25T01:15:29;15.13;;;3.77;;
17201;SDS011;8717;53.588;10.176;2023-04-25T01:17:56;13.87;;;3.93;;
17201;SDS011;8717;53.588;10.176;2023-04-25T01:20:25;16.77;;;5.10;;
17201;SDS011;8717;53.588;10.176;2023-04-25T01:22:54;18.17;;;4.43;;
17201;SDS011;8717;53.588;10.176;2023-04-25T01:25:21;15.60;;;4.13;;
17201;SDS011;8717;53.588;10.176;2023-04-25T01:27:48;16.43;;;4.13;;
17201;SDS011;8717;53.588;10.176;2023-04-25T01:30:15;17.43;;;4.37;;
17201;SDS011;8717;53.588;10.176;2023-04-25T01:32:42;17.03;;;4.27;;
17201;SDS011;8717;53.588;10.176;2023-04-25T01:35:10;16.33;;;4.10;;
17201;SDS011;8717;53.588;10.176;2023-04-25T01:37:37;13.50;;;4.07;;
17201;SDS011;8717;53.588;10.176;2023-04-25T01:40:07;16.47;;;4.43;;
17201;SDS011;8717;53.588;10.176;2023-04-25T01:42:35;18.23;;;4.47;;
17201;SDS011;8717;53.588;10.176;2023-04-25T01:45:04;24.27;;;5.13;;
17201;SDS011;8717;53.588;10.176;2023-04-25T01:47:32;13.07;;;4.33;;
17201;SDS011;8717;53.588;10.176;2023-04-25T01:50:00;22.00;;;5.10;;
17201;SDS011;8717;53.588;10.176;2023-04-25T01:52:28;17.63;;;4.87;;
17201;SDS011;8717;53.588;10.176;2023-04-25T01:54:55;18.63;;;5.30;;
17201;SDS011;8717;53.588;10.176;2023-04-25T01:57:25;18.73;;;4.50;;
17201;SDS011;8717;53.588;10.176;2023-04-25T01:59:52;18.47;;;4.87;;
17201;SDS011;8717;53.588;10.176;2023-04-25T02:02:39;26.20;;;5.30;;
17201;SDS011;8717;53.588;10.176;2023-04-25T02:05:26;19.77;;;5.27;;
17201;SDS011;8717;53.588;10.176;2023-04-25T02:07:54;21.33;;;5.00;;
17201;SDS011;8717;53.588;10.176;2023-04-25T02:10:23;20.57;;;5.30;;
17201;SDS011;8717;53.588;10.176;2023-04-25T02:13:11;20.27;;;4.90;;
17201;SDS011;8717;53.588;10.176;2023-04-25T02:15:56;19.37;;;4.50;;
17201;SDS011;8717;53.588;10.176;2023-04-25T02:18:23;18.07;;;4.27;;
17201;SDS011;8717;53.588;10.176;2023-04-25T02:20:51;17.93;;;4.70;;
17201;SDS011;8717;53.588;10.176;2023-04-25T02:23:19;20.03;;;5.37;;
17201;SDS011;8717;53.588;10.176;2023-04-25T02:25:46;21.77;;;5.13;;
17201;SDS011;8717;53.588;10.176;2023-04-25T02:28:14;16.77;;;4.20;;
17201;SDS011;8717;53.588;10.176;2023-04-25T02:30:41;19.20;;;4.57;;
17201;SDS011;8717;53.588;10.176;2023-04-25T02:33:07;15.57;;;4.23;;
17201;SDS011;8717;53.588;10.176;2023-04-25T02:35:35;18.13;;;4.23;;
17201;SDS011;8717;53.588;10.176;2023-04-25T02:38:01;18.07;;;4.67;;
17201;SDS011;8717;53.588;10.176;2023-04-25T02:40:28;12.13;;;3.93;;
17201;SDS011;8717;53.588;10.176;2023-04-25T02:42:55;16.67;;;4.20;;
17201;SDS011;8717;53.588;10.176;2023-04-25T02:45:26;21.83;;;4.37;;
17201;SDS011;8717;53.588;10.176;2023-04-25T02:47:54;22.30;;;4.53;;
17201;SDS011;8717;53.588;10.176;2023-04-25T02:50:21;14.10;;;4.03;;
17201;SDS011;8717;53.588;10.176;2023-04-25T02:52:48;16.00;;;4.37;;
17201;SDS011;8717;53.588;10.176;2023-04-25T02:55:19;20.43;;;4.47;;
17201;SDS011;8717;53.588;10.176;2023-04-25T02:57:47;20.23;;;4.30;;
17201;SDS011;8717;53.588;10.176;2023-04-25T03:00:23;16.90;;;3.70;;
17201;SDS011;8717;53.588;10.176;2023-04-25T03:02:51;16.53;;;4.27;;
17201;SDS011;8717;53.588;10.176;2023-04-25T03:05:18;16.20;;;4.17;;
17201;SDS011;8717;53.588;10.176;2023-04-25T03:07:45;20.23;;;5.30;;
17201;SDS011;8717;53.588;10.176;2023-04-25T03:10:12;18.63;;;4.87;;
17201;SDS011;8717;53.588;10.176;2023-04-25T03:12:39;20.60;;;4.67;;
17201;SDS011;8717;53.588;10.176;2023-04-25T03:15:06;13.77;;;3.97;;
17201;SDS011;8717;53.588;10.176;2023-04-25T03:17:33;18.90;;;5.20;;
17201;SDS011;8717;53.588;10.176;2023-04-25T03:20:02;15.20;;;3.73;;
17201;SDS011;8717;53.588;10.176;2023-04-25T03:22:31;18.37;;;4.20;;
17201;SDS011;8717;53.588;10.176;2023-04-25T03:24:58;13.07;;;4.00;;
17201;SDS011;8717;53.588;10.176;2023-04-25T03:27:25;13.40;;;3.67;;
17201;SDS011;8717;53.588;10.176;2023-04-25T03:29:52;17.27;;;3.67;;
17201;SDS011;8717;53.588;10.176;2023-04-25T03:32:19;18.57;;;4.17;;
17201;SDS011;8717;53.588;10.176;2023-04-25T03:34:45;18.13;;;4.60;;
17201;SDS011;8717;53.588;10.176;2023-04-25T03:37:14;15.77;;;4.07;;
17201;SDS011;8717;53.588;10.176;2023-04-25T03:39:40;16.80;;;4.60;;
17201;SDS011;8717;53.588;10.176;2023-04-25T03:42:07;13.97;;;4.10;;
17201;SDS011;8717;53.588;10.176;2023-04-25T03:44:34;15.00;;;3.90;;
17201;SDS011;8717;53.588;10.176;2023-04-25T03:47:01;14.23;;;3.70;;
17201;SDS011;8717;53.588;10.176;2023-04-25T03:49:28;24.37;;;5.07;;
17201;SDS011;8717;53.588;10.176;2023-04-25T03:51:59;14.37;;;4.40;;
17201;SDS011;8717;53.588;10.176;2023-04-25T03:54:30;13.57;;;3.37;;
17201;SDS011;8717;53.588;10.176;2023-04-25T03:57:05;15.07;;;3.37;;
17201;SDS011;8717;53.588;10.176;2023-04-25T03:59:35;13.50;;;3.60;;
17201;SDS011;8717;53.588;10.176;2023-04-25T04:02:02;16.13;;;3.20;;
17201;SDS011;8717;53.588;10.176;2023-04-25T04:04:31;18.33;;;3.97;;
17201;SDS011;8717;53.588;10.176;2023-04-25T04:06:59;12.70;;;3.20;;
17201;SDS011;8717;53.588;10.176;2023-04-25T04:09:30;13.87;;;3.43;;
17201;SDS011;8717;53.588;10.176;2023-04-25T04:11:59;14.63;;;3.80;;
17201;SDS011;8717;53.588;10.176;2023-04-25T04:14:28;16.23;;;4.30;;
17201;SDS011;8717;53.588;10.176;2023-04-25T04:16:55;14.00;;;3.47;;
17201;SDS011;8717;53.588;10.176;2023-04-25T04:19:22;16.30;;;3.80;;
17201;SDS011;8717;53.588;10.176;2023-04-25T04:21:58;14.53;;;3.70;;
17201;SDS011;8717;53.588;10.176;2023-04-25T04:24:25;11.77;;;3.70;;
17201;SDS011;8717;53.588;10.176;2023-04-25T04:26:58;14.07;;;3.67;;
17201;SDS011;8717;53.588;10.176;2023-04-25T04:29:54;11.57;;;3.43;;
17201;SDS011;8717;53.588;10.176;2023-04-25T04:32:37;19.07;;;4.20;;
17201;SDS011;8717;53.588;10.176;2023-04-25T04:35:05;17.03;;;4.20;;
17201;SDS011;8717;53.588;10.176;2023-04-25T04:37:34;21.93;;;4.53;;
17201;SDS011;8717;53.588;10.176;2023-04-25T04:40:02;13.30;;;3.73;;
17201;SDS011;8717;53.588;10.176;2023-04-25T04:42:45;10.50;;;2.87;;
17201;SDS011;8717;53.588;10.176;2023-04-25T04:45:27;14.80;;;4.07;;
17201;SDS011;8717;53.588;10.176;2023-04-25T04:48:29;11.93;;;3.57;;
17201;SDS011;8717;53.588;10.176;2023-04-25T04:51:22;12.03;;;3.43;;
17201;SDS011;8717;53.588;10.176;2023-04-25T04:54:02;10.83;;;3.33;;
17201;SDS011;8717;53.588;10.176;2023-04-25T04:56:48;12.53;;;3.53;;
17201;SDS011;8717;53.588;10.176;2023-04-25T04:59:22;11.17;;;3.63;;
17201;SDS011;8717;53.588;10.176;2023-04-25T05:02:07;11.03;;;3.07;;
17201;SDS011;8717;53.588;10.176;2023-04-25T05:04:49;12.43;;;3.50;;
17201;SDS011;8717;53.588;10.176;2023-04-25T05:07:19;16.30;;;4.13;;
17201;SDS011;8717;53.588;10.176;2023-04-25T05:10:01;13.70;;;3.10;;
17201;SDS011;8717;53.588;10.176;2023-04-25T05:13:06;10.83;;;3.37;;
17201;SDS011;8717;53.588;10.176;2023-04-25T05:15:58;11.90;;;3.33;;
17201;SDS011;8717;53.588;10.176;2023-04-25T05:18:48;11.77;;;3.10;;
17201;SDS011;8717;53.588;10.176;2023-04-25T05:21:35;15.10;;;2.90;;
17201;SDS011;8717;53.588;10.176;2023-04-25T05:24:08;12.63;;;3.80;;
17201;SDS011;8717;53.588;10.176;2023-04-25T05:26:53;14.93;;;3.33;;
17201;SDS011;8717;53.588;10.176;2023-04-25T05:29:40;9.97;;;3.40;;
17201;SDS011;8717;53.588;10.176;2023-04-25T05:32:24;11.17;;;3.10;;
17201;SDS011;8717;53.588;10.176;2023-04-25T05:34:52;16.07;;;3.10;;
17201;SDS011;8717;53.588;10.176;2023-04-25T05:37:23;12.07;;;2.93;;
17201;SDS011;8717;53.588;10.176;2023-04-25T05:40:16;9.20;;;2.70;;
17201;SDS011;8717;53.588;10.176;2023-04-25T05:42:43;13.07;;;3.53;;
17201;SDS011;8717;53.588;10.176;2023-04-25T05:45:28;12.97;;;3.13;;
17201;SDS011;8717;53.588;10.176;2023-04-25T05:48:09;15.60;;;3.10;;
17201;SDS011;8717;53.588;10.176;2023-04-25T05:50:56;10.40;;;3.43;;
17201;SDS011;8717;53.588;10.176;2023-04-25T05:53:40;11.97;;;3.17;;
17201;SDS011;8717;53.588;10.176;2023-04-25T05:56:07;10.10;;;3.20;;
17201;SDS011;8717;53.588;10.176;2023-04-25T05:58:34;10.57;;;3.13;;
17201;SDS011;8717;53.588;10.176;2023-04-25T06:01:01;11.53;;;3.17;;
17201;SDS011;8717;53.588;10.176;2023-04-25T06:03:30;10.93;;;3.10;;
17201;SDS011;8717;53.588;10.176;2023-04-25T06:05:57;13.97;;;3.97;;
17201;SDS011;8717;53.588;10.176;2023-04-25T06:08:24;10.90;;;2.80;;
17201;SDS011;8717;53.588;10.176;2023-04-25T06:10:51;13.27;;;3.43;;
17201;SDS011;8717;53.588;10.176;2023-04-25T06:13:18;14.83;;;3.83;;
17201;SDS011;8717;53.588;10.176;2023-04-25T06:15:45;12.83;;;3.43;;
17201;SDS011;8717;53.588;10.176;2023-04-25T06:18:12;11.07;;;3.13;;
17201;SDS011;8717;53.588;10.176;2023-04-25T06:20:40;16.27;;;3.50;;
17201;SDS011;8717;53.588;10.176;2023-04-25T06:23:06;8.30;;;2.63;;
17201;SDS011;8717;53.588;10.176;2023-04-25T06:25:44;16.63;;;3.70;;
17201;SDS011;8717;53.588;10.176;2023-04-25T06:28:11;14.53;;;3.60;;
17201;SDS011;8717;53.588;10.176;2023-04-25T06:30:38;9.43;;;2.90;;
17201;SDS011;8717;53.588;10.176;2023-04-25T06:33:09;11.93;;;3.33;;
17201;SDS011;8717;53.588;10.176;2023-04-25T06:35:37;11.93;;;2.87;;
17201;SDS011;8717;53.588;10.176;2023-04-25T06:38:08;10.77;;;2.70;;
17201;SDS011;8717;53.588;10.176;2023-04-25T06:40:37;10.83;;;3.20;;
17201;SDS011;8717;53.588;10.176;2023-04-25T06:43:04;16.67;;;3.53;;
17201;SDS011;8717;53.588;10.176;2023-04-25T06:45:52;12.50;;;3.03;;
17201;SDS011;8717;53.588;10.176;2023-04-25T06:48:20;11.60;;;3.17;;
17201;SDS011;8717;53.588;10.176;2023-04-25T06:50:48;9.93;;;2.90;;
17201;SDS011;8717;53.588;10.176;2023-04-25T06:53:15;12.83;;;3.23;;
17201;SDS011;8717;53.588;10.176;2023-04-25T06:55:44;9.57;;;2.77;;
17201;SDS011;8717;53.588;10.176;2023-04-25T06:58:16;11.50;;;3.43;;
17201;SDS011;8717;53.588;10.176;2023-04-25T07:01:04;10.07;;;3.03;;
17201;SDS011;8717;53.588;10.176;2023-04-25T07:03:34;10.50;;;2.80;;
17201;SDS011;8717;53.588;10.176;2023-04-25T07:06:07;8.03;;;3.03;;
17201;SDS011;8717;53.588;10.176;2023-04-25T07:08:34;10.57;;;2.77;;
17201;SDS011;8717;53.588;10.176;2023-04-25T07:11:01;15.10;;;3.13;;
17201;SDS011;8717;53.588;10.176;2023-04-25T07:13:27;10.60;;;2.87;;
17201;SDS011;8717;53.588;10.176;2023-04-25T07:15:55;11.30;;;3.13;;
17201;SDS011;8717;53.588;10.176;2023-04-25T07:18:22;10.57;;;2.87;;
17201;SDS011;8717;53.588;10.176;2023-04-25T07:20:49;12.10;;;2.90;;
17201;SDS011;8717;53.588;10.176;2023-04-25T07:23:18;10.10;;;2.80;;
17201;SDS011;8717;53.588;10.176;2023-04-25T07:25:46;11.30;;;2.43;;
17201;SDS011;8717;53.588;10.176;2023-04-25T07:28:16;11.37;;;2.57;;
17201;SDS011;8717;53.588;10.176;2023-04-25T07:30:44;9.13;;;2.53;;
17201;SDS011;8717;53.588;10.176;2023-04-25T07:33:10;10.50;;;2.70;;
17201;SDS011;8717;53.588;10.176;2023-04-25T07:35:37;11.73;;;2.63;;
17201;SDS011;8717;53.588;10.176;2023-04-25T07:38:04;8.33;;;2.50;;
17201;SDS011;8717;53.588;10.176;2023-04-25T07:40:33;5.80;;;1.90;;
17201;SDS011;8717;53.588;10.176;2023-04-25T07:43:04;31.13;;;5.80;;
17201;SDS011;8717;53.588;10.176;2023-04-25T07:45:37;8.03;;;2.53;;
17201;SDS011;8717;53.588;10.176;2023-04-25T07:48:04;7.30;;;2.30;;
17201;SDS011;8717;53.588;10.176;2023-04-25T07:50:34;9.20;;;2.43;;
17201;SDS011;8717;53.588;10.176;2023-04-25T07:53:01;26.63;;;5.20;;
17201;SDS011;8717;53.588;10.176;2023-04-25T07:55:39;28.50;;;4.63;;
17201;SDS011;8717;53.588;10.176;2023-04-25T07:58:11;10.13;;;2.43;;
17201;SDS011;8717;53.588;10.176;2023-04-25T08:00:39;8.77;;;2.80;;
17201;SDS011;8717;53.588;10.176;2023-04-25T08:03:25;11.97;;;3.13;;
17201;SDS011;8717;53.588;10.176;2023-04-25T08:05:53;9.27;;;2.50;;
17201;SDS011;8717;53.588;10.176;2023-04-25T08:08:20;8.43;;;2.50;;
17201;SDS011;8717;53.588;10.176;2023-04-25T08:10:49;10.10;;;2.43;;
17201;SDS011;8717;53.588;10.176;2023-04-25T08:13:16;11.03;;;2.70;;
17201;SDS011;8717;53.588;10.176;2023-04-25T08:15:44;10.37;;;2.30;;
17201;SDS011;8717;53.588;10.176;2023-04-25T08:18:11;8.07;;;2.37;;
17201;SDS011;8717;53.588;10.176;2023-04-25T08:20:37;7.10;;;2.37;;
17201;SDS011;8717;53.588;10.176;2023-04-25T08:23:07;11.47;;;2.73;;
17201;SDS011;8717;53.588;10.176;2023-04-25T08:25:46;11.30;;;2.57;;
17201;SDS011;8717;53.588;10.176;2023-04-25T08:28:17;9.47;;;2.57;;
17201;SDS011;8717;53.588;10.176;2023-04-25T08:30:44;10.23;;;2.47;;
17201;SDS011;8717;53.588;10.176;2023-04-25T08:33:13;6.63;;;1.73;;
17201;SDS011;8717;53.588;10.176;2023-04-25T08:35:58;5.17;;;1.30;;
17201;SDS011;8717;53.588;10.176;2023-04-25T08:38:26;5.90;;;1.60;;
17201;SDS011;8717;53.588;10.176;2023-04-25T08:40:52;3.33;;;1.20;;
17201;SDS011;8717;53.588;10.176;2023-04-25T08:43:23;5.03;;;1.20;;
17201;SDS011;8717;53.588;10.176;2023-04-25T08:45:50;7.13;;;2.00;;
17201;SDS011;8717;53.588;10.176;2023-04-25T08:48:31;7.97;;;1.70;;
17201;SDS011;8717;53.588;10.176;2023-04-25T08:50:59;7.80;;;1.80;;
17201;SDS011;8717;53.588;10.176;2023-04-25T08:53:28;7.90;;;2.10;;
17201;SDS011;8717;53.588;10.176;2023-04-25T08:55:59;12.67;;;2.23;;
17201;SDS011;8717;53.588;10.176;2023-04-25T08:58:28;8.20;;;2.00;;
17201;SDS011;8717;53.588;10.176;2023-04-25T09:00:55;9.57;;;2.83;;
17201;SDS011;8717;53.588;10.176;2023-04-25T09:03:26;7.93;;;2.20;;
17201;SDS011;8717;53.588;10.176;2023-04-25T09:05:52;9.43;;;2.30;;
17201;SDS011;8717;53.588;10.176;2023-04-25T09:08:21;9.67;;;2.10;;
17201;SDS011;8717;53.588;10.176;2023-04-25T09:10:47;9.20;;;2.43;;
17201;SDS011;8717;53.588;10.176;2023-04-25T09:13:14;11.53;;;2.37;;
17201;SDS011;8717;53.588;10.176;2023-04-25T09:16:10;8.10;;;2.60;;
17201;SDS011;8717;53.588;10.176;2023-04-25T09:18:59;9.13;;;2.60;;
17201;SDS011;8717;53.588;10.176;2023-04-25T09:21:27;9.83;;;2.13;;
17201;SDS011;8717;53.588;10.176;2023-04-25T09:23:55;9.17;;;2.33;;
17201;SDS011;8717;53.588;10.176;2023-04-25T09:26:25;10.77;;;2.30;;
17201;SDS011;8717;53.588;10.176;2023-04-25T09:28:57;7.20;;;2.10;;
17201;SDS011;8717;53.588;10.176;2023-04-25T09:31:34;7.00;;;1.70;;
17201;SDS011;8717;53.588;10.176;2023-04-25T09:34:02;5.00;;;1.87;;
17201;SDS011;8717;53.588;10.176;2023-04-25T09:36:38;9.13;;;2.63;;
17201;SDS011;8717;53.588;10.176;2023-04-25T09:39:25;7.33;;;2.00;;
17201;SDS011;8717;53.588;10.176;2023-04-25T09:42:02;8.40;;;1.73;;
17201;SDS011;8717;53.588;10.176;2023-04-25T09:44:30;6.57;;;1.90;;
17201;SDS011;8717;53.588;10.176;2023-04-25T09:46:58;9.20;;;2.20;;
17201;SDS011;8717;53.588;10.176;2023-04-25T09:49:27;8.07;;;2.00;;
17201;SDS011;8717;53.588;10.176;2023-04-25T09:52:08;9.67;;;2.00;;
17201;SDS011;8717;53.588;10.176;2023-04-25T09:54:45;4.80;;;1.60;;
17201;SDS011;8717;53.588;10.176;2023-04-25T09:57:17;8.83;;;1.80;;
17201;SDS011;8717;53.588;10.176;2023-04-25T09:59:46;6.43;;;1.93;;
17201;SDS011;8717;53.588;10.176;2023-04-25T10:02:16;6.97;;;1.37;;
17201;SDS011;8717;53.588;10.176;2023-04-25T10:04:47;4.10;;;1.20;;
17201;SDS011;8717;53.588;10.176;2023-04-25T10:07:21;6.77;;;1.87;;
17201;SDS011;8717;53.588;10.176;2023-04-25T10:09:51;8.03;;;1.77;;
17201;SDS011;8717;53.588;10.176;2023-04-25T10:12:24;6.40;;;1.73;;
17201;SDS011;8717;53.588;10.176;2023-04-25T10:14:52;7.30;;;1.83;;
17201;SDS011;8717;53.588;10.176;2023-04-25T10:17:21;10.40;;;1.97;;
17201;SDS011;8717;53.588;10.176;2023-04-25T10:19:49;7.73;;;2.13;;
17201;SDS011;8717;53.588;10.176;2023-04-25T10:22:18;9.70;;;2.30;;
17201;SDS011;8717;53.588;10.176;2023-04-25T10:24:52;3.80;;;1.80;;
17201;SDS011;8717;53.588;10.176;2023-04-25T10:27:19;5.37;;;2.10;;
17201;SDS011;8717;53.588;10.176;2023-04-25T10:29:45;8.57;;;2.13;;
17201;SDS011;8717;53.588;10.176;2023-04-25T10:32:28;6.53;;;1.60;;
17201;SDS011;8717;53.588;10.176;2023-04-25T10:34:56;5.23;;;1.60;;
17201;SDS011;8717;53.588;10.176;2023-04-25T10:37:23;6.33;;;1.93;;
17201;SDS011;8717;53.588;10.176;2023-04-25T10:39:50;4.53;;;1.80;;
17201;SDS011;8717;53.588;10.176;2023-04-25T10:42:18;7.43;;;1.50;;
17201;SDS011;8717;53.588;10.176;2023-04-25T10:45:00;6.70;;;1.57;;
17201;SDS011;8717;53.588;10.176;2023-04-25T10:47:35;5.37;;;1.87;;
17201;SDS011;8717;53.588;10.176;2023-04-25T10:50:04;6.10;;;1.97;;
17201;SDS011;8717;53.588;10.176;2023-04-25T10:52:32;6.73;;;1.80;;
17201;SDS011;8717;53.588;10.176;2023-04-25T10:54:59;6.93;;;1.77;;
17201;SDS011;8717;53.588;10.176;2023-04-25T10:57:30;8.07;;;2.07;;
17201;SDS011;8717;53.588;10.176;2023-04-25T10:59:59;6.03;;;1.73;;
17201;SDS011;8717;53.588;10.176;2023-04-25T11:02:38;6.93;;;2.00;;
17201;SDS011;8717;53.588;10.176;2023-04-25T11:05:08;6.13;;;1.70;;
17201;SDS011;8717;53.588;10.176;2023-04-25T11:07:37;4.63;;;1.50;;
17201;SDS011;8717;53.588;10.176;2023-04-25T11:10:05;11.50;;;2.20;;
17201;SDS011;8717;53.588;10.176;2023-04-25T11:12:32;6.13;;;1.70;;
17201;SDS011;8717;53.588;10.176;2023-04-25T11:15:00;6.93;;;1.80;;
17201;SDS011;8717;53.588;10.176;2023-04-25T11:20:19;5.93;;;1.77;;
17201;SDS011;8717;53.588;10.176;2023-04-25T11:22:47;8.00;;;1.80;;
17201;SDS011;8717;53.588;10.176;2023-04-25T11:25:15;5.77;;;1.67;;
17201;SDS011;8717;53.588;10.176;2023-04-25T11:27:51;5.23;;;1.50;;
17201;SDS011;8717;53.588;10.176;2023-04-25T11:30:19;7.60;;;2.77;;
17201;SDS011;8717;53.588;10.176;2023-04-25T11:32:47;4.77;;;1.37;;
17201;SDS011;8717;53.588;10.176;2023-04-25T11:35:13;7.03;;;1.50;;
17201;SDS011;8717;53.588;10.176;2023-04-25T11:37:42;8.33;;;2.10;;
17201;SDS011;8717;53.588;10.176;2023-04-25T11:40:10;5.00;;;1.47;;
17201;SDS011;8717;53.588;10.176;2023-04-25T11:42:37;7.40;;;1.60;;
17201;SDS011;8717;53.588;10.176;2023-04-25T11:45:05;5.67;;;1.70;;
17201;SDS011;8717;53.588;10.176;2023-04-25T11:47:33;6.17;;;1.30;;
17201;SDS011;8717;53.588;10.176;2023-04-25T11:50:00;6.70;;;1.73;;
17201;SDS011;8717;53.588;10.176;2023-04-25T11:52:35;8.17;;;1.67;;
17201;SDS011;8717;53.588;10.176;2023-04-25T11:55:06;5.43;;;1.80;;
17201;SDS011;8717;53.588;10.176;2023-04-25T11:57:34;6.57;;;1.43;;
17201;SDS011;8717;53.588;10.176;2023-04-25T12:00:05;6.43;;;1.67;;
17201;SDS011;8717;53.588;10.176;2023-04-25T12:02:40;3.70;;;1.13;;
17201;SDS011;8717;53.588;10.176;2023-04-25T12:05:08;6.30;;;1.50;;
17201;SDS011;8717;53.588;10.176;2023-04-25T12:07:35;5.80;;;1.50;;
17201;SDS011;8717;53.588;10.176;2023-04-25T12:10:07;5.67;;;1.73;;
17201;SDS011;8717;53.588;10.176;2023-04-25T12:12:36;5.70;;;1.60;;
17201;SDS011;8717;53.588;10.176;2023-04-25T12:15:10;4.30;;;1.87;;
17201;SDS011;8717;53.588;10.176;2023-04-25T12:17:40;3.83;;;1.50;;
17201;SDS011;8717;53.588;10.176;2023-04-25T12:20:10;4.07;;;1.30;;
17201;SDS011;8717;53.588;10.176;2023-04-25T12:22:40;4.10;;;1.10;;
17201;SDS011;8717;53.588;10.176;2023-04-25T12:25:10;7.77;;;1.40;;
17201;SDS011;8717;53.588;10.176;2023-04-25T12:27:39;3.07;;;1.20;;
17201;SDS011;8717;53.588;10.176;2023-04-25T12:30:07;4.33;;;1.20;;
17201;SDS011;8717;53.588;10.176;2023-04-25T12:32:35;3.73;;;1.10;;
17201;SDS011;8717;53.588;10.176;2023-04-25T12:35:03;4.77;;;1.20;;
17201;SDS011;8717;53.588;10.176;2023-04-25T12:37:30;6.43;;;1.30;;
17201;SDS011;8717;53.588;10.176;2023-04-25T12:39:56;2.07;;;1.07;;
17201;SDS011;8717;53.588;10.176;2023-04-25T12:42:24;2.70;;;1.30;;
17201;SDS011;8717;53.588;10.176;2023-04-25T12:44:51;4.63;;;1.63;;
17201;SDS011;8717;53.588;10.176;2023-04-25T12:47:18;3.97;;;1.20;;
17201;SDS011;8717;53.588;10.176;2023-04-25T12:49:44;4.43;;;1.10;;
17201;SDS011;8717;53.588;10.176;2023-04-25T12:52:11;4.90;;;1.37;;
17201;SDS011;8717;53.588;10.176;2023-04-25T12:54:38;5.00;;;1.33;;
17201;SDS011;8717;53.588;10.176;2023-04-25T12:57:05;4.73;;;1.23;;
17201;SDS011;8717;53.588;10.176;2023-04-25T12:59:33;6.20;;;1.60;;
17201;SDS011;8717;53.588;10.176;2023-04-25T13:02:00;5.33;;;1.47;;
17201;SDS011;8717;53.588;10.176;2023-04-25T13:04:26;6.03;;;1.60;;
17201;SDS011;8717;53.588;10.176;2023-04-25T13:06:53;7.03;;;1.47;;
17201;SDS011;8717;53.588;10.176;2023-04-25T13:09:20;6.33;;;2.00;;
17201;SDS011;8717;53.588;10.176;2023-04-25T13:11:46;6.37;;;1.70;;
17201;SDS011;8717;53.588;10.176;2023-04-25T13:14:13;5.77;;;1.40;;
17201;SDS011;8717;53.588;10.176;2023-04-25T13:16:41;7.37;;;2.00;;
17201;SDS011;8717;53.588;10.176;2023-04-25T13:19:08;6.47;;;1.50;;
17201;SDS011;8717;53.588;10.176;2023-04-25T13:21:38;5.53;;;1.60;;
17201;SDS011;8717;53.588;10.176;2023-04-25T13:24:07;3.90;;;2.00;;
17201;SDS011;8717;53.588;10.176;2023-04-25T13:26:33;6.07;;;1.53;;
17201;SDS011;8717;53.588;10.176;2023-04-25T13:29:00;3.60;;;1.50;;
17201;SDS011;8717;53.588;10.176;2023-04-25T13:31:28;5.63;;;1.80;;
17201;SDS011;8717;53.588;10.176;2023-04-25T13:33:56;5.07;;;1.30;;
17201;SDS011;8717;53.588;10.176;2023-04-25T13:36:23;4.30;;;1.30;;
17201;SDS011;8717;53.588;10.176;2023-04-25T13:38:52;7.07;;;1.50;;
17201;SDS011;8717;53.588;10.176;2023-04-25T13:41:19;4.33;;;1.73;;
17201;SDS011;8717;53.588;10.176;2023-04-25T13:43:46;3.10;;;1.27;;
17201;SDS011;8717;53.588;10.176;2023-04-25T13:46:13;6.07;;;1.50;;
17201;SDS011;8717;53.588;10.176;2023-04-25T13:48:41;7.33;;;1.50;;
17201;SDS011;8717;53.588;10.176;2023-04-25T13:51:13;5.97;;;1.50;;
17201;SDS011;8717;53.588;10.176;2023-04-25T13:53:41;5.23;;;1.30;;
17201;SDS011;8717;53.588;10.176;2023-04-25T13:56:08;8.23;;;2.10;;
17201;SDS011;8717;53.588;10.176;2023-04-25T13:58:36;6.77;;;1.87;;
17201;SDS011;8717;53.588;10.176;2023-04-25T14:01:02;7.17;;;1.80;;
17201;SDS011;8717;53.588;10.176;2023-04-25T14:03:29;7.37;;;1.63;;
17201;SDS011;8717;53.588;10.176;2023-04-25T14:05:56;4.97;;;1.90;;
17201;SDS011;8717;53.588;10.176;2023-04-25T14:08:24;4.43;;;1.67;;
17201;SDS011;8717;53.588;10.176;2023-04-25T14:10:51;6.53;;;2.17;;
17201;SDS011;8717;53.588;10.176;2023-04-25T14:13:18;8.60;;;1.90;;
17201;SDS011;8717;53.588;10.176;2023-04-25T14:15:45;8.03;;;1.90;;
17201;SDS011;8717;53.588;10.176;2023-04-25T14:18:12;8.87;;;1.80;;
17201;SDS011;8717;53.588;10.176;2023-04-25T14:20:38;6.60;;;1.87;;
17201;SDS011;8717;53.588;10.176;2023-04-25T14:23:06;3.63;;;1.57;;
17201;SDS011;8717;53.588;10.176;2023-04-25T14:25:34;7.17;;;1.63;;
17201;SDS011;8717;53.588;10.176;2023-04-25T14:28:01;6.47;;;1.80;;
17201;SDS011;8717;53.588;10.176;2023-04-25T14:30:29;5.53;;;1.60;;
17201;SDS011;8717;53.588;10.176;2023-04-25T14:32:55;5.03;;;1.60;;
17201;SDS011;8717;53.588;10.176;2023-04-25T14:35:22;4.43;;;1.43;;
17201;SDS011;8717;53.588;10.176;2023-04-25T14:37:49;11.30;;;2.03;;
17201;SDS011;8717;53.588;10.176;2023-04-25T14:40:15;7.20;;;1.63;;
17201;SDS011;8717;53.588;10.176;2023-04-25T14:42:43;6.87;;;1.87;;
17201;SDS011;8717;53.588;10.176;2023-04-25T14:45:10;5.00;;;1.87;;
17201;SDS011;8717;53.588;10.176;2023-04-25T14:47:37;7.00;;;1.57;;
17201;SDS011;8717;53.588;10.176;2023-04-25T14:50:04;7.80;;;1.30;;
17201;SDS011;8717;53.588;10.176;2023-04-25T14:52:32;7.90;;;1.43;;
17201;SDS011;8717;53.588;10.176;2023-04-25T14:54:59;5.37;;;1.37;;
17201;SDS011;8717;53.588;10.176;2023-04-25T14:57:30;6.40;;;1.80;;
17201;SDS011;8717;53.588;10.176;2023-04-25T14:59:58;10.20;;;1.80;;
17201;SDS011;8717;53.588;10.176;2023-04-25T15:02:25;7.43;;;1.60;;